Time;durP1;ratioP1;P1;durP2;ratioP2;P2;SDS_P1;SDS_P2;PMS_P1;PMS_P2;Temp;Humidity;BMP_temperature;BMP_pressure;BME280_temperature;BME280_humidity;BME280_pressure;Samples;Min_cycle;Max_cycle;Signal;HPM_P1;HPM_P2
2022/06/23 00:01:34;;;;;;;1999.90;999.90;;;;;;;24.42;61.79;95123.34;4989771;28;20027;-68
2022/06/23 00:03:59;;;;;;;1999.90;999.90;;;;;;;23.60;64.22;95111.38;4990167;28;20035;-69
2022/06/23 00:06:34;;;;;;;1999.90;999.90;;;;;;;23.41;64.91;95129.97;4990185;28;20070;-68
2022/06/23 00:09:00;;;;;;;1999.90;999.90;;;;;;;23.03;66.56;95129.50;4990408;28;20030;-68
2022/06/23 00:11:28;;;;;;;1999.90;999.90;;;;;;;23.07;66.33;95109.38;4988326;28;20022;-68
2022/06/23 00:14:11;;;;;;;1999.90;999.90;;;;;;;22.82;68.06;95136.38;4990269;28;20045;-69
2022/06/23 00:16:37;;;;;;;1999.90;999.90;;;;;;;22.73;68.26;95129.78;4990032;28;20593;-68
2022/06/23 00:19:02;;;;;;;1999.90;999.90;;;;;;;23.25;66.30;95128.41;4990172;28;20030;-68
2022/06/23 00:21:33;;;;;;;1999.90;999.90;;;;;;;23.37;65.59;95135.41;4988413;28;20023;-68
2022/06/23 00:24:03;;;;;;;1999.90;999.90;;;;;;;23.54;65.16;95129.19;4990101;28;20014;-68
2022/06/23 00:26:34;;;;;;;1999.90;999.90;;;;;;;23.75;64.02;95117.59;4990069;28;20026;-69
2022/06/23 00:29:15;;;;;;;1999.90;999.90;;;;;;;24.02;63.47;95112.53;4990059;28;20587;-68
2022/06/23 00:31:57;;;;;;;1999.90;999.90;;;;;;;24.23;62.77;95128.00;4989842;28;20266;-68
2022/06/23 00:34:35;;;;;;;1999.90;999.90;;;;;;;23.83;62.78;95102.06;4990137;28;20030;-70
2022/06/23 00:37:12;;;;;;;1999.90;999.90;;;;;;;24.01;62.86;95121.06;4990250;28;20037;-69
2022/06/23 00:39:40;;;;;;;1999.90;999.90;;;;;;;24.08;62.48;95102.81;4989862;28;20382;-68
2022/06/23 00:42:27;;;;;;;1999.90;999.90;;;;;;;23.86;62.18;95114.88;4989586;28;20052;-68
2022/06/23 00:45:11;;;;;;;1999.90;999.90;;;;;;;23.92;62.64;95145.91;4973294;28;20041;-68
2022/06/23 00:47:48;;;;;;;1999.90;999.90;;;;;;;23.97;62.78;95150.97;4989846;28;20631;-68
2022/06/23 00:50:53;;;;;;;1999.90;999.90;;;;;;;24.05;62.77;95147.06;4989708;28;20038;-68
2022/06/23 00:53:24;;;;;;;1999.90;999.90;;;;;;;23.99;62.41;95145.13;4989409;28;20069;-68
2022/06/23 00:56:01;;;;;;;1999.90;999.90;;;;;;;23.99;62.57;95131.53;4988367;28;20505;-68
2022/06/23 00:58:52;;;;;;;1999.90;999.90;;;;;;;24.22;61.67;95131.91;4989883;28;20030;-69
2022/06/23 01:01:26;;;;;;;1999.90;999.90;;;;;;;24.40;61.35;95148.19;4989388;28;20022;-68
2022/06/23 01:03:56;;;;;;;1999.90;999.90;;;;;;;24.56;60.96;95153.19;4988764;28;20045;-68
2022/06/23 01:06:33;;;;;;;1999.90;999.90;;;;;;;24.60;60.67;95143.06;4993428;28;20079;-68
2022/06/23 01:09:04;;;;;;;1999.90;999.90;;;;;;;24.74;60.28;95151.19;4993342;28;20034;-68
2022/06/23 01:11:49;;;;;;;1999.90;999.90;;;;;;;24.83;59.77;95146.09;4991688;28;20026;-68
2022/06/23 01:14:23;;;;;;;1999.90;999.90;;;;;;;24.96;59.78;95165.47;4993434;28;20030;-68
2022/06/23 01:17:01;;;;;;;1999.90;999.90;;;;;;;25.03;59.22;95161.94;4991737;28;20022;-68
2022/06/23 01:19:52;;;;;;;1999.90;999.90;;;;;;;24.93;58.86;95141.78;4993188;28;20030;-68
2022/06/23 01:22:49;;;;;;;1999.90;999.90;;;;;;;24.86;58.53;95149.97;4991603;28;20023;-69
2022/06/23 01:25:36;;;;;;;1999.90;999.90;;;;;;;24.82;58.79;95163.56;4993199;28;20031;-68
2022/06/23 01:28:01;;;;;;;1999.90;999.90;;;;;;;24.75;58.98;95171.00;4993109;28;20438;-68
2022/06/23 01:30:33;;;;;;;1999.90;999.90;;;;;;;24.64;58.97;95154.72;4991309;28;20079;-69
2022/06/23 01:33:12;;;;;;;1999.90;999.90;;;;;;;24.62;58.77;95165.22;4992961;28;20088;-68
2022/06/23 01:35:45;;;;;;;1999.90;999.90;;;;;;;24.40;59.12;95140.03;4992972;28;20026;-68
2022/06/23 01:38:17;;;;;;;1999.90;999.90;;;;;;;24.49;58.71;95164.88;4991699;28;20117;-69
2022/06/23 01:40:51;;;;;;;1999.90;999.90;;;;;;;24.24;59.09;95142.38;4990843;28;20034;-68
2022/06/23 01:43:29;;;;;;;1999.90;999.90;;;;;;;24.25;59.40;95171.88;4993112;28;20490;-68
2022/06/23 01:46:08;;;;;;;1999.90;999.90;;;;;;;24.09;59.67;95164.13;4987016;28;20034;-68
2022/06/23 01:48:51;;;;;;;1999.90;999.90;;;;;;;23.84;59.78;95145.13;4992686;28;20365;-68
2022/06/23 01:51:30;;;;;;;1999.90;999.90;;;;;;;24.09;59.60;95174.22;4992432;28;20433;-68
2022/06/23 01:54:21;;;;;;;1999.90;999.90;;;;;;;24.13;59.95;95183.16;4992505;28;20398;-68
2022/06/23 01:56:49;;;;;;;1999.90;999.90;;;;;;;24.18;59.87;95171.91;4991110;28;20030;-68
2022/06/23 01:59:28;;;;;;;1999.90;999.90;;;;;;;24.25;59.82;95180.03;4992465;28;20030;-69
2022/06/23 02:02:18;;;;;;;1999.90;999.90;;;;;;;24.29;59.36;95178.09;4992111;28;20468;-68
2022/06/23 02:05:11;;;;;;;1999.90;999.90;;;;;;;24.36;58.99;95175.41;4992215;28;20117;-69
2022/06/23 02:11:13;;;;;;;1999.90;999.90;;;;;;;24.36;58.71;95161.81;4991935;28;20045;-68
2022/06/23 02:13:41;;;;;;;1999.90;999.90;;;;;;;24.35;58.43;95143.13;4991999;28;20026;-67
2022/06/23 02:16:19;;;;;;;1999.90;999.90;;;;;;;24.33;58.15;95126.44;4991408;28;20034;-68
2022/06/23 02:18:44;;;;;;;1999.90;999.90;;;;;;;24.62;58.13;95171.44;4992050;28;20446;-68
2022/06/23 02:21:18;;;;;;;1999.90;999.90;;;;;;;24.55;58.10;95163.28;4991484;28;20033;-68
2022/06/23 02:23:52;;;;;;;1999.90;999.90;;;;;;;24.42;58.42;95142.38;4992104;28;20105;-68
2022/06/23 02:26:30;;;;;;;1999.90;999.90;;;;;;;24.44;58.04;95167.22;4992003;28;20077;-70
2022/06/23 02:29:01;;;;;;;1999.90;999.90;;;;;;;24.44;57.97;95164.50;4992150;28;20483;-68
2022/06/23 02:31:37;;;;;;;1999.90;999.90;;;;;;;24.62;58.05;95187.75;4989962;28;20037;-68
2022/06/23 02:34:18;;;;;;;1999.90;999.90;;;;;;;24.53;58.04;95173.78;4992061;28;20038;-68
2022/06/23 02:37:02;;;;;;;1999.90;999.90;;;;;;;24.55;58.14;95184.28;4991725;28;20033;-68
2022/06/23 02:39:43;;;;;;;1999.90;999.90;;;;;;;24.64;57.94;95196.28;4990253;28;20115;-68
2022/06/23 02:42:24;;;;;;;1999.90;999.90;;;;;;;24.65;57.62;95207.94;4989659;28;20026;-68
2022/06/23 02:45:15;;;;;;;1999.90;999.90;;;;;;;24.53;58.12;95200.22;4990432;28;20034;-69
2022/06/23 02:47:50;;;;;;;1999.90;999.90;;;;;;;24.60;57.96;95213.78;4947011;28;20034;-69
2022/06/23 02:50:58;;;;;;;1999.90;999.90;;;;;;;24.59;57.82;95201.34;4990458;28;20491;-68
2022/06/23 02:54:00;;;;;;;1999.90;999.90;;;;;;;24.64;57.70;95215.34;4988598;28;20039;-69
2022/06/23 02:56:59;;;;;;;1999.90;999.90;;;;;;;24.60;57.89;95213.78;4990256;28;20033;-68
2022/06/23 02:59:53;;;;;;;1999.90;999.90;;;;;;;24.49;57.94;95207.59;4990033;28;20066;-68
2022/06/23 03:02:31;;;;;;;1999.90;999.90;;;;;;;24.48;58.10;95212.25;4991020;28;20028;-68
2022/06/23 03:05:22;;;;;;;1999.90;999.90;;;;;;;24.51;57.91;95218.84;4991266;28;20065;-68
2022/06/23 03:08:09;;;;;;;1999.90;999.90;;;;;;;24.45;58.28;95213.03;4991213;28;20026;-68
2022/06/23 03:10:43;;;;;;;1999.90;999.90;;;;;;;24.46;58.06;95219.25;4990857;28;20022;-69
2022/06/23 03:13:15;;;;;;;1999.90;999.90;;;;;;;24.43;58.21;95220.81;4989760;28;20026;-68
2022/06/23 03:15:51;;;;;;;1999.90;999.90;;;;;;;24.39;58.23;95220.03;4990932;28;20089;-68
2022/06/23 03:18:37;;;;;;;1999.90;999.90;;;;;;;24.19;58.31;95188.97;4991192;28;20498;-68
2022/06/23 03:21:07;;;;;;;1999.90;999.90;;;;;;;24.28;58.57;95213.81;4990575;28;20607;-68
2022/06/23 03:23:43;;;;;;;1999.90;999.90;;;;;;;24.34;58.53;95220.41;4990881;28;20034;-68
2022/06/23 03:26:47;;;;;;;1999.90;999.90;;;;;;;24.31;58.47;95223.91;4989613;28;20026;-68
2022/06/23 03:29:25;;;;;;;1999.90;999.90;;;;;;;24.27;58.72;95223.91;4972509;28;20026;-68
2022/06/23 03:32:01;;;;;;;1999.90;999.90;;;;;;;24.06;58.73;95202.19;4990216;28;20031;-68
2022/06/23 03:34:34;;;;;;;1999.90;999.90;;;;;;;24.16;58.75;95215.00;4990554;28;20022;-68
2022/06/23 03:37:12;;;;;;;1999.90;999.90;;;;;;;24.15;58.89;95221.56;4990628;28;20027;-68
2022/06/23 03:42:35;;;;;;;1999.90;999.90;;;;;;;24.22;58.66;95240.63;4990383;28;20032;-68
2022/06/23 03:45:22;;;;;;;1999.90;999.90;;;;;;;24.18;58.84;95239.84;4990631;28;20033;-69
2022/06/23 03:48:03;;;;;;;1999.90;999.90;;;;;;;24.09;58.99;95231.28;4990515;28;20026;-69
2022/06/23 03:50:43;;;;;;;1999.90;999.90;;;;;;;24.11;58.90;95240.63;4988577;28;20018;-68
2022/06/23 03:53:23;;;;;;;1999.90;999.90;;;;;;;24.13;58.96;95261.97;4990548;28;20054;-68
2022/06/23 03:55:53;;;;;;;1999.90;999.90;;;;;;;23.99;59.24;95242.94;4990151;28;20041;-68
2022/06/23 03:58:27;;;;;;;1999.90;999.90;;;;;;;24.04;59.25;95248.75;4990691;28;20026;-68
2022/06/23 04:01:00;;;;;;;1999.90;999.90;;;;;;;24.00;59.51;95252.63;4989813;28;20030;-69
2022/06/23 04:03:35;;;;;;;1999.90;999.90;;;;;;;23.86;59.54;95237.13;4990426;28;20130;-68
2022/06/23 04:06:32;;;;;;;1999.90;999.90;;;;;;;23.91;59.48;95252.25;4988807;28;20479;-68
2022/06/23 04:09:12;;;;;;;1999.90;999.90;;;;;;;23.81;59.42;95237.50;4990255;28;20159;-67
2022/06/23 04:11:53;;;;;;;1999.90;999.90;;;;;;;23.92;59.31;95240.22;4988506;28;20019;-68
2022/06/23 04:14:28;;;;;;;1999.90;999.90;;;;;;;23.88;59.45;95236.72;4990258;28;20053;-68
2022/06/23 04:17:05;;;;;;;1999.90;999.90;;;;;;;23.85;59.47;95224.69;4990291;28;20035;-68
2022/06/23 04:19:33;;;;;;;1999.90;999.90;;;;;;;24.06;59.36;95240.25;4988810;28;20034;-68
2022/06/23 04:22:09;;;;;;;1999.90;999.90;;;;;;;24.29;58.82;95229.72;4989596;28;20030;-69
2022/06/23 04:24:41;;;;;;;1999.90;999.90;;;;;;;24.47;58.49;95239.84;4990030;28;20360;-69
2022/06/23 04:27:15;;;;;;;1999.90;999.90;;;;;;;24.71;57.98;95232.78;4988790;28;20057;-68
2022/06/23 04:29:41;;;;;;;1999.90;999.90;;;;;;;25.13;56.88;95243.59;4988458;28;20394;-68
2022/06/23 04:32:13;;;;;;;1999.90;999.90;;;;;;;25.08;55.98;95205.09;4989514;28;20030;-68
2022/06/23 04:35:04;;;;;;;1999.90;999.90;;;;;;;25.70;55.28;95239.03;4988541;28;20108;-68
2022/06/23 04:37:45;;;;;;;1999.90;999.90;;;;;;;26.05;54.33;95246.19;4979511;28;20383;-69
2022/06/23 04:40:23;;;;;;;1999.90;999.90;;;;;;;26.29;52.93;95250.66;4991557;28;20483;-69
2022/06/23 04:42:57;;;;;;;1999.90;999.90;;;;;;;26.39;52.68;95227.97;4994323;28;20733;-68
2022/06/23 04:45:32;;;;;;;1999.90;999.90;;;;;;;26.57;52.31;95244.22;4993771;28;20033;-69
2022/06/23 04:48:00;;;;;;;1999.90;999.90;;;;;;;26.67;51.70;95248.03;4993772;28;20386;-69
2022/06/23 04:50:39;;;;;;;1999.90;999.90;;;;;;;26.88;51.46;95233.38;4993078;28;20522;-69
2022/06/23 04:53:05;;;;;;;1999.90;999.90;;;;;;;27.09;50.88;95244.09;4993938;28;20058;-69
2022/06/23 04:55:35;;;;;;;1999.90;999.90;;;;;;;27.32;50.30;95246.13;4992211;28;20022;-69
2022/06/23 04:58:12;;;;;;;1999.90;999.90;;;;;;;27.35;49.90;95230.91;4993559;28;20443;-69
2022/06/23 05:00:52;;;;;;;1999.90;999.90;;;;;;;27.56;49.19;95227.09;4992682;28;20054;-69
2022/06/23 05:03:25;;;;;;;1999.90;999.90;;;;;;;27.77;48.51;95221.34;4993532;28;20120;-69
2022/06/23 05:06:05;;;;;;;1999.90;999.90;;;;;;;27.83;48.01;95216.97;4993270;28;20094;-69
2022/06/23 05:08:33;;;;;;;1999.90;999.90;;;;;;;28.03;47.43;95233.44;4992089;28;20028;-69
2022/06/23 05:11:09;;;;;;;1999.90;999.90;;;;;;;28.02;47.08;95212.78;4992995;28;20034;-69
2022/06/23 05:13:45;;;;;;;1999.90;999.90;;;;;;;28.15;47.18;95215.69;4993325;28;20048;-68
2022/06/23 05:16:23;;;;;;;1999.90;999.90;;;;;;;28.38;46.16;95243.06;4991742;28;20030;-69
2022/06/23 05:18:54;;;;;;;1999.90;999.90;;;;;;;28.37;46.42;95233.31;4993038;28;20029;-69
2022/06/23 05:21:28;;;;;;;1999.90;999.90;;;;;;;28.43;45.60;95223.44;4992461;28;20149;-69
2022/06/23 05:24:08;;;;;;;1999.90;999.90;;;;;;;28.41;45.59;95239.50;4993132;28;20026;-69
2022/06/23 05:26:42;;;;;;;1999.90;999.90;;;;;;;28.28;45.66;95238.53;4992811;28;20026;-69
2022/06/23 05:29:19;;;;;;;1999.90;999.90;;;;;;;28.30;45.91;95224.41;4991597;28;20026;-69
2022/06/23 05:31:49;;;;;;;1999.90;999.90;;;;;;;28.52;45.27;95235.81;4991476;28;20506;-69
2022/06/23 05:34:24;;;;;;;1999.90;999.90;;;;;;;28.62;44.91;95241.09;4993004;28;20412;-68
2022/06/23 05:37:19;;;;;;;1999.90;999.90;;;;;;;28.62;44.92;95232.13;4992595;28;20042;-69
2022/06/23 05:39:54;;;;;;;1999.90;999.90;;;;;;;28.72;44.53;95239.38;4985636;28;20049;-69
2022/06/23 05:42:31;;;;;;;1999.90;999.90;;;;;;;28.80;44.56;95240.75;4991074;28;20113;-69
2022/06/23 05:45:00;;;;;;;1999.90;999.90;;;;;;;28.49;43.61;95210.81;4992624;28;20061;-69
2022/06/23 05:47:30;;;;;;;1999.90;999.90;;;;;;;28.40;44.08;95227.00;4992640;28;20045;-69
2022/06/23 05:50:11;;;;;;;1999.90;999.90;;;;;;;28.70;44.44;95252.69;4990833;28;20530;-69
2022/06/23 05:52:46;;;;;;;1999.90;999.90;;;;;;;28.79;44.51;95241.19;4991632;28;20135;-69
2022/06/23 05:55:18;;;;;;;1999.90;999.90;;;;;;;28.73;43.88;95244.41;4992207;28;20026;-69
2022/06/23 05:57:53;;;;;;;1999.90;999.90;;;;;;;28.49;44.31;95229.97;4992364;28;20477;-69
2022/06/23 06:00:30;;;;;;;1999.90;999.90;;;;;;;28.56;44.02;95244.72;4991607;28;20042;-69
2022/06/23 06:03:03;;;;;;;1999.90;999.90;;;;;;;28.57;44.35;95241.59;4991030;28;20022;-68
2022/06/23 06:05:36;;;;;;;1999.90;999.90;;;;;;;28.36;43.83;95240.00;4992369;28;20070;-69
2022/06/23 06:08:06;;;;;;;1999.90;999.90;;;;;;;28.58;44.17;95234.16;4990913;28;20530;-68
2022/06/23 06:10:34;;;;;;;1999.90;999.90;;;;;;;28.72;44.24;95245.63;4991716;28;20030;-69
2022/06/23 06:13:00;;;;;;;1999.90;999.90;;;;;;;28.52;43.67;95244.03;4991965;28;20479;-69
2022/06/23 06:15:29;;;;;;;1999.90;999.90;;;;;;;28.37;44.07;95252.47;4992187;28;20037;-68
2022/06/23 06:18:17;;;;;;;1999.90;999.90;;;;;;;28.53;43.96;95251.03;4991037;28;20030;-69
2022/06/23 06:20:42;;;;;;;1999.90;999.90;;;;;;;28.59;43.38;95241.16;4991343;28;20161;-69
2022/06/23 06:23:14;;;;;;;1999.90;999.90;;;;;;;28.60;43.02;95259.13;4990694;28;20124;-68
2022/06/23 06:25:44;;;;;;;1999.90;999.90;;;;;;;28.63;42.74;95245.38;4991987;28;20034;-68
2022/06/23 06:28:32;;;;;;;1999.90;999.90;;;;;;;28.87;42.53;95250.81;4992023;28;20027;-68
2022/06/23 06:31:18;;;;;;;1999.90;999.90;;;;;;;28.90;42.10;95258.19;4991484;28;20034;-69
2022/06/23 06:34:00;;;;;;;1999.90;999.90;;;;;;;28.83;41.66;95264.56;4991832;28;20057;-68
2022/06/23 06:36:36;;;;;;;1999.90;999.90;;;;;;;28.35;42.59;95265.78;4990382;28;20721;-68
2022/06/23 06:39:08;;;;;;;1999.90;999.90;;;;;;;28.05;43.50;95244.75;4991578;28;20092;-68
2022/06/23 06:41:35;;;;;;;1999.90;999.90;;;;;;;28.12;43.19;95235.66;4991292;28;20022;-68
2022/06/23 06:44:02;;;;;;;1999.90;999.90;;;;;;;28.27;42.63;95252.63;4990105;28;20037;-69
2022/06/23 06:46:28;;;;;;;1999.90;999.90;;;;;;;28.33;42.03;95259.16;4991366;28;20034;-68
2022/06/23 06:48:54;;;;;;;1999.90;999.90;;;;;;;28.39;42.91;95266.50;4989999;28;20132;-69
2022/06/23 06:51:23;;;;;;;1999.90;999.90;;;;;;;28.47;41.96;95257.00;4990650;28;20030;-68
2022/06/23 06:54:13;;;;;;;1999.90;999.90;;;;;;;28.55;42.00;95260.38;4991396;28;20030;-68
2022/06/23 06:56:46;;;;;;;1999.90;999.90;;;;;;;28.66;41.19;95262.91;4989861;28;20046;-69
2022/06/23 06:59:12;;;;;;;1999.90;999.90;;;;;;;28.63;41.46;95277.44;4989791;28;20034;-69
2022/06/23 07:01:41;;;;;;;1999.90;999.90;;;;;;;28.75;41.17;95272.13;4989197;28;20030;-69
2022/06/23 07:04:14;;;;;;;1999.90;999.90;;;;;;;28.60;41.08;95265.38;4990000;28;20497;-68
2022/06/23 07:06:47;;;;;;;1999.90;999.90;;;;;;;28.06;41.18;95270.16;4991015;28;20130;-69
2022/06/23 07:09:15;;;;;;;1999.90;999.90;;;;;;;28.52;41.38;95271.41;4991082;28;20029;-68
2022/06/23 07:12:00;;;;;;;1999.90;999.90;;;;;;;27.08;43.73;95283.50;4990542;28;20467;-69
2022/06/23 07:14:50;;;;;;;1999.90;999.90;;;;;;;27.90;41.98;95273.50;4990866;28;20042;-69
2022/06/23 07:17:34;;;;;;;1999.90;999.90;;;;;;;28.05;42.06;95274.03;4990924;28;20034;-69
2022/06/23 07:20:12;;;;;;;1999.90;999.90;;;;;;;28.06;42.33;95264.69;4989142;28;20574;-69
2022/06/23 07:22:52;;;;;;;1999.90;999.90;;;;;;;27.44;43.04;95275.66;4990836;28;20030;-68
2022/06/23 07:25:23;;;;;;;1999.90;999.90;;;;;;;27.69;42.90;95253.47;4991031;28;20026;-69
2022/06/23 07:27:57;;;;;;;1999.90;999.90;;;;;;;27.98;42.97;95267.50;4989525;28;20188;-68
2022/06/23 07:30:30;;;;;;;1999.90;999.90;;;;;;;27.98;42.67;95264.75;4988796;28;20030;-68
2022/06/23 07:33:03;;;;;;;1999.90;999.90;;;;;;;28.09;42.94;95244.69;4990806;28;20027;-69
2022/06/23 07:35:36;;;;;;;1999.90;999.90;;;;;;;28.22;42.55;95254.63;4990547;28;20026;-69
2022/06/23 07:38:25;;;;;;;1999.90;999.90;;;;;;;28.38;42.28;95254.03;4990591;28;20484;-69
2022/06/23 07:41:10;;;;;;;1999.90;999.90;;;;;;;26.85;43.94;95259.53;4990159;28;20062;-68
2022/06/23 07:44:05;;;;;;;1999.90;999.90;;;;;;;27.44;42.58;95247.56;4989181;28;20035;-68
2022/06/23 07:46:34;;;;;;;1999.90;999.90;;;;;;;26.67;44.75;95250.75;4979711;28;20117;-68
2022/06/23 07:48:59;;;;;;;1999.90;999.90;;;;;;;26.49;44.65;95250.91;4989073;28;20033;-68
2022/06/23 07:51:25;;;;;;;1999.90;999.90;;;;;;;26.32;44.69;95270.91;4990069;28;20146;-68
2022/06/23 07:53:53;;;;;;;1999.90;999.90;;;;;;;26.02;45.90;95266.06;4990181;28;20042;-68
2022/06/23 07:56:28;;;;;;;1999.90;999.90;;;;;;;26.51;44.95;95264.91;4990369;28;20114;-68
2022/06/23 07:59:02;;;;;;;1999.90;999.90;;;;;;;27.07;44.05;95257.34;4990270;28;20026;-68
2022/06/23 08:01:29;;;;;;;1999.90;999.90;;;;;;;27.57;43.49;95269.63;4988675;28;20026;-68
2022/06/23 08:04:24;;;;;;;1999.90;999.90;;;;;;;27.99;42.60;95255.38;4988894;28;20538;-70
2022/06/23 08:06:50;;;;;;;1999.90;999.90;;;;;;;28.31;41.85;95247.88;4973547;28;20165;-68
2022/06/23 08:09:27;;;;;;;1999.90;999.90;;;;;;;28.47;41.29;95231.59;4989111;28;20065;-68
2022/06/23 08:14:43;;;;;;;1999.90;999.90;;;;;;;27.63;42.23;95233.22;4989734;28;20449;-68
2022/06/23 08:17:14;;;;;;;1999.90;999.90;;;;;;;28.28;41.32;95233.06;4990293;28;20026;-68
2022/06/23 08:19:52;;;;;;;1999.90;999.90;;;;;;;28.53;40.14;95227.19;4990069;28;20022;-68
2022/06/23 08:22:26;;;;;;;1999.90;999.90;;;;;;;28.24;40.81;95213.19;4989845;28;20100;-68
2022/06/23 08:24:56;;;;;;;1999.90;999.90;;;;;;;29.22;39.41;95239.19;4989923;28;20057;-68
2022/06/23 08:27:28;;;;;;;1999.90;999.90;;;;;;;29.44;38.93;95236.03;4990014;28;20113;-69
2022/06/23 08:29:59;;;;;;;1999.90;999.90;;;;;;;28.81;38.58;95214.16;4989545;28;20383;-68
2022/06/23 08:32:26;;;;;;;1999.90;999.90;;;;;;;28.39;39.53;95219.22;4989821;28;20038;-69
2022/06/23 08:35:03;;;;;;;1999.90;999.90;;;;;;;28.50;38.60;95228.78;4988378;28;20023;-68
2022/06/23 08:37:40;;;;;;;1999.90;999.90;;;;;;;29.10;38.79;95226.13;4989929;28;20022;-68
2022/06/23 08:40:19;;;;;;;1999.90;999.90;;;;;;;29.24;38.35;95217.63;4988018;28;20027;-68
2022/06/23 08:42:52;;;;;;;1999.90;999.90;;;;;;;29.42;38.36;95209.03;4989714;28;20423;-68
2022/06/23 08:45:20;;;;;;;1999.90;999.90;;;;;;;29.55;37.95;95216.63;4989884;28;20407;-68
2022/06/23 08:47:58;;;;;;;1999.90;999.90;;;;;;;29.77;37.56;95215.72;4989827;28;20035;-68
2022/06/23 08:50:35;;;;;;;1999.90;999.90;;;;;;;29.59;36.27;95214.59;4989091;28;20109;-69
2022/06/23 08:53:06;;;;;;;1999.90;999.90;;;;;;;29.36;36.69;95188.03;4988325;28;20033;-68
2022/06/23 08:55:42;;;;;;;1999.90;999.90;;;;;;;29.40;37.11;95188.75;4989561;28;20236;-69
2022/06/23 08:58:12;;;;;;;1999.90;999.90;;;;;;;29.13;37.16;95189.69;4989672;28;20026;-68
2022/06/23 09:00:55;;;;;;;1999.90;999.90;;;;;;;29.39;37.08;95204.41;4987710;28;20030;-68
2022/06/23 09:03:30;;;;;;;1999.90;999.90;;;;;;;29.49;37.42;95188.94;4988376;28;20022;-68
2022/06/23 09:06:08;;;;;;;1999.90;999.90;;;;;;;29.76;36.89;95205.19;4988516;28;20018;-68
2022/06/23 09:08:47;;;;;;;1999.90;999.90;;;;;;;29.85;36.27;95207.34;4988360;28;20019;-68
2022/06/23 09:11:23;;;;;;;1999.90;999.90;;;;;;;29.66;36.01;95195.25;4989391;28;20029;-68
2022/06/23 09:14:17;;;;;;;1999.90;999.90;;;;;;;29.86;36.20;95204.16;4989612;28;20014;-68
2022/06/23 09:17:12;;;;;;;1999.90;999.90;;;;;;;30.00;35.96;95190.13;4988281;28;20468;-69
2022/06/23 09:20:08;;;;;;;1999.90;999.90;;;;;;;30.14;35.50;95197.25;4989507;28;20391;-68
2022/06/23 09:22:39;;;;;;;1999.90;999.90;;;;;;;29.86;35.63;95195.19;4989328;28;20029;-68
2022/06/23 09:25:10;;;;;;;1999.90;999.90;;;;;;;29.89;35.67;95181.38;4990097;28;20030;-69
2022/06/23 09:28:05;;;;;;;1999.90;999.90;;;;;;;30.05;35.78;95183.34;4991985;28;20050;-68
2022/06/23 09:30:49;;;;;;;1999.90;999.90;;;;;;;29.85;35.77;95169.72;4961932;28;20046;-69
2022/06/23 09:33:22;;;;;;;1999.90;999.90;;;;;;;30.00;35.75;95159.19;4992962;28;20471;-69
2022/06/23 09:36:12;;;;;;;1999.90;999.90;;;;;;;29.71;36.51;95145.38;4992982;28;20034;-69
2022/06/23 09:38:44;;;;;;;1999.90;999.90;;;;;;;29.90;36.29;95166.47;4991721;28;20026;-69
2022/06/23 09:41:31;;;;;;;1999.90;999.90;;;;;;;30.07;36.28;95166.47;4992322;28;20418;-68
2022/06/23 09:44:14;;;;;;;1999.90;999.90;;;;;;;30.13;35.30;95173.00;4991238;28;20031;-68
2022/06/23 09:46:56;;;;;;;1999.90;999.90;;;;;;;30.13;35.55;95156.53;4991192;28;20033;-68
2022/06/23 09:49:44;;;;;;;1999.90;999.90;;;;;;;30.13;35.80;95153.78;4992472;28;20034;-69
2022/06/23 09:52:34;;;;;;;1999.90;999.90;;;;;;;30.06;35.26;95148.47;4990952;28;20046;-68
2022/06/23 09:55:05;;;;;;;1999.90;999.90;;;;;;;30.26;35.36;95157.38;4992530;28;20034;-68
2022/06/23 09:57:58;;;;;;;1999.90;999.90;;;;;;;30.22;35.40;95142.97;4991189;28;20029;-69
2022/06/23 10:00:39;;;;;;;1999.90;999.90;;;;;;;30.39;34.52;95140.97;4991884;28;20035;-69
2022/06/23 10:03:22;;;;;;;1999.90;999.90;;;;;;;30.66;34.07;95154.34;4992633;28;20034;-68
2022/06/23 10:06:33;;;;;;;1999.90;999.90;;;;;;;30.78;33.85;95145.44;4991201;28;20550;-69
2022/06/23 10:09:16;;;;;;;1999.90;999.90;;;;;;;30.83;33.85;95142.16;4992375;28;20486;-69
2022/06/23 10:11:53;;;;;;;1999.90;999.90;;;;;;;30.32;34.12;95141.94;4991924;28;20026;-68
2022/06/23 10:14:47;;;;;;;1999.90;999.90;;;;;;;30.81;33.22;95128.06;4990846;28;20030;-70
2022/06/23 10:17:33;;;;;;;1999.90;999.90;;;;;;;30.87;33.89;95136.56;4989212;28;20399;-70
2022/06/23 10:20:14;;;;;;;1999.90;999.90;;;;;;;31.24;33.31;95127.59;4990396;28;20066;-68
2022/06/23 10:22:58;;;;;;;1999.90;999.90;;;;;;;31.51;32.49;95146.44;4991972;28;20026;-69
2022/06/23 10:25:44;;;;;;;1999.90;999.90;;;;;;;31.30;31.72;95131.38;4992054;28;20076;-69
2022/06/23 10:28:28;;;;;;;1999.90;999.90;;;;;;;31.51;30.65;95140.94;4992104;28;20019;-69
2022/06/23 10:30:53;;;;;;;1999.90;999.90;;;;;;;30.98;31.61;95139.78;4991621;28;20033;-69
2022/06/23 10:33:52;;;;;;;1999.90;999.90;;;;;;;30.57;32.06;95111.06;4992421;28;20022;-69
2022/06/23 10:36:37;;;;;;;1999.90;999.90;;;;;;;30.80;31.63;95116.31;4990518;28;20026;-69
2022/06/23 10:39:14;;;;;;;1999.90;999.90;;;;;;;31.16;32.26;95131.75;4991299;28;20045;-69
2022/06/23 10:42:04;;;;;;;1999.90;999.90;;;;;;;31.11;32.06;95113.06;4991220;28;20066;-68
2022/06/23 10:44:46;;;;;;;1999.90;999.90;;;;;;;31.48;31.71;95128.09;4991480;28;20034;-69
2022/06/23 10:47:47;;;;;;;1999.90;999.90;;;;;;;31.23;32.15;95128.06;4991633;28;20034;-69
2022/06/23 10:50:13;;;;;;;;;;;;;;;31.35;30.63;95115.56;4977133;28;20034;-69
2022/06/23 10:52:44;;;;;;;1999.90;999.90;;;;;;;30.66;31.97;95113.16;4990162;28;20282;-69
2022/06/23 10:55:25;;;;;;;1999.90;999.90;;;;;;;30.97;31.33;95110.78;4991332;28;20084;-69
2022/06/23 10:58:18;;;;;;;1999.90;999.90;;;;;;;30.74;31.31;95098.06;4991607;28;20087;-69
2022/06/23 11:01:25;;;;;;;1999.90;999.90;;;;;;;31.32;30.81;95095.19;4982995;28;20488;-69
2022/06/23 11:04:11;;;;;;;1999.90;999.90;;;;;;;31.64;30.37;95113.44;4991215;28;20091;-69
2022/06/23 11:06:51;;;;;;;1999.90;999.90;;;;;;;32.04;29.96;95111.00;4989851;28;20038;-69
2022/06/23 11:09:38;;;;;;;1999.90;999.90;;;;;;;32.31;29.51;95102.19;4989761;28;20041;-68
2022/06/23 11:12:29;;;;;;;1999.90;999.90;;;;;;;32.02;30.04;95102.41;4989404;28;20034;-70
2022/06/23 11:14:57;;;;;;;;;;;;;;;32.55;29.44;95093.50;4956063;28;20043;-69
2022/06/23 11:17:54;;;;;;;1999.90;999.90;;;;;;;32.75;28.68;95079.41;4989475;28;19972;-70
2022/06/23 11:20:38;;;;;;;1999.90;999.90;;;;;;;33.01;28.27;95097.34;4990534;28;20065;-69
2022/06/23 11:23:25;;;;;;;1999.90;999.90;;;;;;;32.77;29.02;95075.00;4990543;28;20095;-69
2022/06/23 11:26:27;;;;;;;1999.90;999.90;;;;;;;32.71;29.57;95076.81;4989402;28;20030;-70
2022/06/23 11:28:55;;;;;;;1999.90;999.90;;;;;;;32.44;29.74;95077.38;4920794;28;20067;-69
2022/06/23 11:31:35;;;;;;;1999.90;999.90;;;;;;;32.15;30.21;95077.59;4989998;28;20430;-69
2022/06/23 11:34:11;;;;;;;1999.90;999.90;;;;;;;32.47;29.89;95062.72;4990594;28;20022;-69
2022/06/23 11:37:13;;;;;;;1999.90;999.90;;;;;;;32.66;30.12;95071.09;4990357;28;20038;-68
2022/06/23 11:39:41;;;;;;;1999.90;999.90;;;;;;;33.34;29.42;95061.06;4988866;28;20105;-69
2022/06/23 11:42:21;;;;;;;1999.90;999.90;;;;;;;33.66;28.93;95050.75;4990204;28;20030;-69
2022/06/23 11:45:23;;;;;;;1999.90;999.90;;;;;;;33.23;28.88;95042.19;4990358;28;20049;-69
2022/06/23 11:47:55;;;;;;;1999.90;999.90;;;;;;;33.88;28.25;95041.16;4990393;28;20022;-69
2022/06/23 11:50:24;;;;;;;1999.90;999.90;;;;;;;34.44;27.85;95052.19;4988838;28;20076;-69
2022/06/23 11:52:58;;;;;;;1999.90;999.90;;;;;;;34.41;28.40;95059.44;4990338;28;20030;-69